Chrysanthemum — C6XO4 — position and weather

sailwx.info

Track history (hours):
 
Tides and Currents Weather Stations Pressure Air Temp Water Temp Dewpoint Dewpoint Depression Visibility Wind Speed Wind Dir Waves Ship Positions

Chrysanthemum

Last reported at 2016-Sep-09 20:18 UTC. Time now 2016-Sep-30 16:57 UTC.
Position N 02°02' E 102°10'.
Warning: this ship's position is 20 days out of date.

Length 244 m; draft 7.8 m.

Type: Ship. MMSI: 311015300.

Date/timePositionNaut miles runAvg speedWind from/ knotsBaromVisibWave heightAir tempDewpointWater temp
2016-Sep-09 20:18N 02°02' E 102°10'912.4
2016-Sep-09 19:33N 01°56' E 102°18'1212.2
2016-Sep-09 18:34N 01°51' E 102°29'1211.8
2016-Sep-09 17:33N 01°47' E 102°40'1211.8
2016-Sep-09 16:34N 01°41' E 102°50'1212.0
2016-Sep-09 15:33N 01°36' E 103°01'1312.6
2016-Sep-09 14:33N 01°28' E 103°10'3511.7
2016-Sep-09 11:33N 01°10' E 103°41'9 9.3
2016-Sep-09 10:33N 01°12' E 103°50'1312.9
2016-Sep-09 09:33N 01°16' E 104°02'  
2016-Sep-03 23:30N 22°27' E 119°53'1212.8
2016-Sep-03 22:33N 22°39' E 119°53'  
2016-Aug-31 17:14N 22°41' E 119°55'912.6
2016-Aug-31 16:31N 22°32' E 119°55'  
Track history (hours):
 
Tides and Currents Weather Stations Pressure Air Temp Water Temp Dewpoint Dewpoint Depression Visibility Wind Speed Wind Dir Waves Ship Positions

Chrysanthemum

Last reported at 2016-Sep-09 20:18 UTC. Time now 2016-Sep-30 16:57 UTC.
Position N 02°02' E 102°10'.
Warning: this ship's position is 20 days out of date.

Length 244 m; draft 7.8 m.

Type: Ship. MMSI: 311015300.

Date/timePositionNaut miles runAvg speedWind from/ knotsBaromVisibWave heightAir tempDewpointWater temp
2016-Sep-09 20:18N 02°02' E 102°10'912.4
2016-Sep-09 19:33N 01°56' E 102°18'1212.2
2016-Sep-09 18:34N 01°51' E 102°29'1211.8
2016-Sep-09 17:33N 01°47' E 102°40'1211.8
2016-Sep-09 16:34N 01°41' E 102°50'1212.0
2016-Sep-09 15:33N 01°36' E 103°01'1312.6
2016-Sep-09 14:33N 01°28' E 103°10'3511.7
2016-Sep-09 11:33N 01°10' E 103°41'9 9.3
2016-Sep-09 10:33N 01°12' E 103°50'1312.9
2016-Sep-09 09:33N 01°16' E 104°02'  
2016-Sep-03 23:30N 22°27' E 119°53'1212.8
2016-Sep-03 22:33N 22°39' E 119°53'  
2016-Aug-31 17:14N 22°41' E 119°55'912.6
2016-Aug-31 16:31N 22°32' E 119°55'  

Dump ship's entire track history